Terminal Aerodrome Forecast
Issued by NWS

Home | Current Version | Previous Version | Text Only | Print | Product List | Glossary Off
Versions: 1 2 3 4 5 6 7 8 9 10 11 12 13 14

696
FTUS45 KGGW 230535
TAFSDY
TAF
KSDY 230535Z 2306/2406 33006KT P6SM SCT040 BKN080
     FM230900 VRB04KT 5SM BR BKN035
     FM231800 03005KT P6SM BKN040
     FM240000 04004KT P6SM VCSH OVC030=

USA.gov is the U.S. government's official web portal to all federal, state and local government web resources and services.